sensor_id;sensor_type;location;lat;lon;timestamp;pressure;altitude;pressure_sealevel;temperature;humidity
63582;BME280;49727;51.078;17.066;2023-06-01T00:07:43;100382.84;;;13.44;57.62
63582;BME280;49727;51.078;17.066;2023-06-01T00:22:44;100376.25;;;13.32;58.08
63582;BME280;49727;51.078;17.066;2023-06-01T00:37:45;100369.78;;;13.11;58.22
63582;BME280;49727;51.078;17.066;2023-06-01T00:52:48;100369.34;;;12.84;59.15
63582;BME280;49727;51.078;17.066;2023-06-01T01:08:12;100356.84;;;12.62;59.34
63582;BME280;49727;51.078;17.066;2023-06-01T01:38:24;100356.25;;;12.28;60.73
63582;BME280;49727;51.078;17.066;2023-06-01T01:53:26;100332.19;;;12.05;60.73
63582;BME280;49727;51.078;17.066;2023-06-01T02:08:26;100324.44;;;11.87;61.77
63582;BME280;49727;51.078;17.066;2023-06-01T02:23:27;100332.00;;;11.75;62.26
63582;BME280;49727;51.078;17.066;2023-06-01T02:38:27;100317.72;;;11.60;62.48
63582;BME280;49727;51.078;17.066;2023-06-01T02:53:27;100314.13;;;11.44;63.04
63582;BME280;49727;51.078;17.066;2023-06-01T03:08:28;100306.81;;;11.38;63.11
63582;BME280;49727;51.078;17.066;2023-06-01T03:23:29;100304.19;;;11.30;63.18
63582;BME280;49727;51.078;17.066;2023-06-01T03:38:30;100316.63;;;11.46;63.84
63582;BME280;49727;51.078;17.066;2023-06-01T03:53:30;100311.31;;;11.77;64.09
63582;BME280;49727;51.078;17.066;2023-06-01T04:08:31;100298.69;;;12.26;63.45
63582;BME280;49727;51.078;17.066;2023-06-01T04:23:31;100296.06;;;12.79;63.15
63582;BME280;49727;51.078;17.066;2023-06-01T04:38:32;100276.06;;;13.19;62.03
63582;BME280;49727;51.078;17.066;2023-06-01T04:53:32;100267.56;;;13.61;61.73
63582;BME280;49727;51.078;17.066;2023-06-01T05:08:33;100262.59;;;14.22;61.39
63582;BME280;49727;51.078;17.066;2023-06-01T05:23:33;100257.97;;;14.88;60.15
63582;BME280;49727;51.078;17.066;2023-06-01T05:38:34;100249.13;;;15.84;58.40
63582;BME280;49727;51.078;17.066;2023-06-01T05:53:34;100246.78;;;17.22;56.05
63582;BME280;49727;51.078;17.066;2023-06-01T06:08:34;100233.91;;;18.58;53.05
63582;BME280;49727;51.078;17.066;2023-06-01T06:23:35;100235.19;;;19.79;48.57
63582;BME280;49727;51.078;17.066;2023-06-01T06:38:35;100227.72;;;20.71;44.87
63582;BME280;49727;51.078;17.066;2023-06-01T06:53:35;100230.13;;;21.60;42.32
63582;BME280;49727;51.078;17.066;2023-06-01T07:08:36;100212.31;;;22.44;38.87
63582;BME280;49727;51.078;17.066;2023-06-01T07:23:36;100209.41;;;23.62;36.61
63582;BME280;49727;51.078;17.066;2023-06-01T07:38:36;100208.13;;;24.29;35.00
63582;BME280;49727;51.078;17.066;2023-06-01T07:53:36;100200.75;;;25.21;31.61
63582;BME280;49727;51.078;17.066;2023-06-01T08:08:37;100189.16;;;25.92;30.20
63582;BME280;49727;51.078;17.066;2023-06-01T08:23:38;100185.25;;;26.76;27.54
63582;BME280;49727;51.078;17.066;2023-06-01T08:38:39;100183.41;;;27.66;26.48
63582;BME280;49727;51.078;17.066;2023-06-01T08:53:40;100165.00;;;28.65;23.57
63582;BME280;49727;51.078;17.066;2023-06-01T09:08:44;100151.00;;;28.66;23.47
63582;BME280;49727;51.078;17.066;2023-06-01T09:23:44;100128.72;;;29.16;23.33
63582;BME280;49727;51.078;17.066;2023-06-01T09:38:45;100130.31;;;28.55;23.70
63582;BME280;49727;51.078;17.066;2023-06-01T09:53:45;100108.94;;;29.71;22.66
63582;BME280;49727;51.078;17.066;2023-06-01T10:08:46;100104.66;;;30.26;22.45
63582;BME280;49727;51.078;17.066;2023-06-01T10:23:47;100097.91;;;29.25;23.93
63582;BME280;49727;51.078;17.066;2023-06-01T10:38:48;100083.72;;;29.36;23.74
63582;BME280;49727;51.078;17.066;2023-06-01T10:53:48;100068.75;;;29.10;24.14
63582;BME280;49727;51.078;17.066;2023-06-01T11:08:50;100063.13;;;28.58;25.58
63582;BME280;49727;51.078;17.066;2023-06-01T11:23:52;100046.59;;;29.06;23.92
63582;BME280;49727;51.078;17.066;2023-06-01T11:38:55;100041.31;;;28.72;25.21
63582;BME280;49727;51.078;17.066;2023-06-01T11:53:56;100027.78;;;28.99;25.02
63582;BME280;49727;51.078;17.066;2023-06-01T12:08:57;100007.28;;;28.78;25.63
63582;BME280;49727;51.078;17.066;2023-06-01T12:23:58;99993.25;;;28.17;26.51
63582;BME280;49727;51.078;17.066;2023-06-01T12:39:00;99970.59;;;28.74;25.68
63582;BME280;49727;51.078;17.066;2023-06-01T12:54:02;99964.94;;;28.46;26.45
63582;BME280;49727;51.078;17.066;2023-06-01T13:09:02;99941.41;;;28.26;25.74
63582;BME280;49727;51.078;17.066;2023-06-01T13:24:03;99936.03;;;27.91;25.59
63582;BME280;49727;51.078;17.066;2023-06-01T13:39:03;99918.72;;;27.23;25.51
63582;BME280;49727;51.078;17.066;2023-06-01T13:54:04;99907.81;;;27.18;26.48
63582;BME280;49727;51.078;17.066;2023-06-01T14:09:05;99893.28;;;27.52;26.35
63582;BME280;49727;51.078;17.066;2023-06-01T14:24:05;99874.03;;;27.03;27.31
63582;BME280;49727;51.078;17.066;2023-06-01T14:39:06;99875.06;;;27.13;28.12
63582;BME280;49727;51.078;17.066;2023-06-01T14:54:06;99856.78;;;27.08;28.56
63582;BME280;49727;51.078;17.066;2023-06-01T15:09:06;99839.84;;;26.82;30.16
63582;BME280;49727;51.078;17.066;2023-06-01T15:24:08;99828.09;;;26.76;29.23
63582;BME280;49727;51.078;17.066;2023-06-01T15:39:08;99807.69;;;26.68;29.21
63582;BME280;49727;51.078;17.066;2023-06-01T15:54:10;99794.31;;;26.32;29.06
63582;BME280;49727;51.078;17.066;2023-06-01T16:09:10;99783.22;;;26.18;29.24
63582;BME280;49727;51.078;17.066;2023-06-01T16:24:11;99773.22;;;25.98;28.83
63582;BME280;49727;51.078;17.066;2023-06-01T16:39:11;99773.94;;;25.75;28.78
63582;BME280;49727;51.078;17.066;2023-06-01T16:54:12;99758.25;;;25.46;29.21
63582;BME280;49727;51.078;17.066;2023-06-01T17:09:13;99757.03;;;25.07;29.19
63582;BME280;49727;51.078;17.066;2023-06-01T17:24:16;99752.22;;;24.78;29.65
63582;BME280;49727;51.078;17.066;2023-06-01T17:39:16;99764.47;;;24.35;28.49
63582;BME280;49727;51.078;17.066;2023-06-01T17:54:21;99757.59;;;23.86;28.44
63582;BME280;49727;51.078;17.066;2023-06-01T18:09:21;99772.09;;;23.33;28.75
63582;BME280;49727;51.078;17.066;2023-06-01T18:24:22;99773.16;;;22.79;29.72
63582;BME280;49727;51.078;17.066;2023-06-01T18:39:22;99782.97;;;22.20;31.03
63582;BME280;49727;51.078;17.066;2023-06-01T18:54:22;99793.28;;;21.69;31.28
63582;BME280;49727;51.078;17.066;2023-06-01T19:09:24;99818.88;;;21.17;31.58
63582;BME280;49727;51.078;17.066;2023-06-01T19:24:24;99831.38;;;20.67;32.35
63582;BME280;49727;51.078;17.066;2023-06-01T19:39:28;99840.44;;;20.26;34.12
63582;BME280;49727;51.078;17.066;2023-06-01T19:54:28;99845.88;;;19.86;36.55
63582;BME280;49727;51.078;17.066;2023-06-01T20:09:29;99863.44;;;19.48;38.49
63582;BME280;49727;51.078;17.066;2023-06-01T20:24:30;99878.97;;;19.05;40.21
63582;BME280;49727;51.078;17.066;2023-06-01T20:39:30;99874.78;;;18.67;41.60
63582;BME280;49727;51.078;17.066;2023-06-01T20:54:30;99881.94;;;18.31;42.75
63582;BME280;49727;51.078;17.066;2023-06-01T21:09:31;99894.88;;;17.91;44.39
63582;BME280;49727;51.078;17.066;2023-06-01T21:24:31;99922.25;;;17.51;46.20
63582;BME280;49727;51.078;17.066;2023-06-01T21:39:32;99925.72;;;17.08;48.07
63582;BME280;49727;51.078;17.066;2023-06-01T21:54:32;99943.19;;;16.67;49.39
63582;BME280;49727;51.078;17.066;2023-06-01T22:09:32;99944.19;;;16.34;50.58
63582;BME280;49727;51.078;17.066;2023-06-01T22:24:33;99958.16;;;16.04;51.82
63582;BME280;49727;51.078;17.066;2023-06-01T22:39:33;99953.88;;;15.76;52.82
63582;BME280;49727;51.078;17.066;2023-06-01T22:54:34;99965.88;;;15.53;53.79
63582;BME280;49727;51.078;17.066;2023-06-01T23:09:34;99956.00;;;15.27;54.38
63582;BME280;49727;51.078;17.066;2023-06-01T23:24:34;99967.34;;;15.02;55.53
63582;BME280;49727;51.078;17.066;2023-06-01T23:39:35;99975.13;;;14.84;56.04
63582;BME280;49727;51.078;17.066;2023-06-01T23:54:36;99989.56;;;14.69;56.24
